Time;durP1;ratioP1;P1;durP2;ratioP2;P2;SDS_P1;SDS_P2;PMS_P1;PMS_P2;Temp;Humidity;BMP_temperature;BMP_pressure;BME280_temperature;BME280_humidity;BME280_pressure;Samples;Min_cycle;Max_cycle;Signal;HPM_P1;HPM_P2
2021/09/13 00:01:18;;;;;;;1.80;1.70;;;24.60;61.30;;;;;;5052805;28;20095;-48
2021/09/13 00:03:44;;;;;;;2.30;1.80;;;24.60;61.80;;;;;;5052337;28;20489;-50
2021/09/13 00:06:09;;;;;;;2.72;1.60;;;24.60;61.60;;;;;;5053427;28;20052;-50
2021/09/13 00:08:35;;;;;;;2.15;1.80;;;24.60;61.50;;;;;;5053598;28;20025;-48
2021/09/13 00:11:00;;;;;;;5.60;2.13;;;24.60;61.30;;;;;;5053117;28;20425;-47
2021/09/13 00:13:26;;;;;;;2.75;1.50;;;24.60;61.40;;;;;;5052644;28;20021;-50
2021/09/13 00:15:52;;;;;;;1.90;1.48;;;24.60;61.30;;;;;;5051915;28;20573;-50
2021/09/13 00:18:18;;;;;;;1.80;1.50;;;24.60;61.10;;;;;;5052851;28;20124;-52
2021/09/13 00:20:43;;;;;;;4.15;2.40;;;24.60;61.10;;;;;;5051288;28;20028;-53
2021/09/13 00:23:09;;;;;;;2.80;1.60;;;24.60;61.30;;;;;;5051347;28;20025;-52
2021/09/13 00:25:34;;;;;;;2.08;1.55;;;24.60;61.40;;;;;;5052202;28;20066;-55
2021/09/13 00:28:00;;;;;;;2.67;1.75;;;24.60;61.30;;;;;;5052309;28;20037;-50
2021/09/13 00:30:26;;;;;;;3.25;1.70;;;24.60;61.10;;;;;;5052443;28;20025;-47
2021/09/13 00:32:51;;;;;;;2.38;1.90;;;24.60;61.30;;;;;;5051815;28;20099;-51
2021/09/13 00:35:17;;;;;;;2.92;1.77;;;24.60;61.10;;;;;;5052536;28;20025;-46
2021/09/13 00:37:42;;;;;;;2.60;1.45;;;24.60;61.30;;;;;;5050554;28;20359;-47
2021/09/13 00:40:09;;;;;;;3.25;1.77;;;24.60;61.30;;;;;;5052257;28;20406;-47
2021/09/13 00:42:35;;;;;;;2.38;1.88;;;24.60;61.20;;;;;;5051932;28;20021;-55
2021/09/13 00:45:02;;;;;;;2.00;1.80;;;24.60;61.20;;;;;;5052121;28;20095;-49
2021/09/13 00:47:27;;;;;;;1.73;1.52;;;24.60;61.10;;;;;;5052390;28;20405;-51
2021/09/13 00:49:54;;;;;;;2.20;1.50;;;24.60;61.30;;;;;;5051249;28;20028;-47
2021/09/13 00:52:19;;;;;;;1.70;1.60;;;24.50;61.40;;;;;;5052210;28;20024;-48
2021/09/13 00:54:46;;;;;;;1.98;1.55;;;24.50;61.00;;;;;;5051438;28;20016;-49
2021/09/13 00:57:13;;;;;;;2.80;1.60;;;24.50;61.00;;;;;;5051745;28;20104;-49
2021/09/13 00:59:38;;;;;;;2.17;1.50;;;24.50;60.90;;;;;;5051055;28;20102;-48
2021/09/13 01:02:04;;;;;;;1.67;1.48;;;24.50;61.10;;;;;;5051827;28;20033;-50
2021/09/13 01:04:30;;;;;;;2.05;1.35;;;24.50;60.80;;;;;;5051709;28;20025;-47
2021/09/13 01:06:56;;;;;;;2.17;1.50;;;24.50;61.00;;;;;;5049974;28;20040;-47
2021/09/13 01:09:22;;;;;;;2.45;1.70;;;24.50;60.80;;;;;;5051840;28;20108;-49
2021/09/13 01:11:49;;;;;;;2.15;1.48;;;24.50;61.10;;;;;;5050949;28;20044;-48
2021/09/13 01:14:17;;;;;;;3.15;1.50;;;24.40;61.30;;;;;;5049787;28;20043;-49
2021/09/13 01:16:43;;;;;;;2.65;1.70;;;24.30;61.70;;;;;;5047954;28;20381;-48
2021/09/13 01:19:09;;;;;;;2.80;1.30;;;24.40;61.40;;;;;;5051066;28;20025;-48
2021/09/13 01:21:37;;;;;;;1.90;1.58;;;24.40;60.90;;;;;;5050906;28;20032;-54
2021/09/13 01:24:03;;;;;;;3.05;1.70;;;24.40;61.10;;;;;;5048881;28;20470;-48
2021/09/13 01:26:29;;;;;;;1.77;1.50;;;24.40;61.10;;;;;;5051428;28;20036;-48
2021/09/13 01:28:54;;;;;;;1.80;1.52;;;24.40;61.10;;;;;;5050685;28;20040;-47
2021/09/13 01:31:20;;;;;;;2.00;1.48;;;24.50;60.90;;;;;;5049746;28;20033;-48
2021/09/13 01:33:45;;;;;;;2.70;1.77;;;24.50;60.80;;;;;;5050486;28;20021;-52
2021/09/13 01:36:11;;;;;;;1.40;1.30;;;24.50;60.80;;;;;;5050255;28;20056;-52
2021/09/13 01:38:37;;;;;;;2.47;1.40;;;24.40;60.60;;;;;;5050177;28;20074;-50
2021/09/13 01:41:02;;;;;;;2.15;1.40;;;24.40;60.80;;;;;;5050652;28;20033;-55
2021/09/13 01:43:28;;;;;;;1.65;1.38;;;24.40;60.50;;;;;;5051391;28;20017;-48
2021/09/13 01:45:54;;;;;;;2.97;1.27;;;24.50;60.50;;;;;;5050384;28;20031;-47
2021/09/13 01:48:19;;;;;;;1.77;1.20;;;24.40;60.40;;;;;;5051151;28;20051;-51
2021/09/13 01:50:47;;;;;;;1.88;1.50;;;24.40;60.60;;;;;;5051527;28;20108;-52
2021/09/13 01:53:13;;;;;;;2.13;1.50;;;24.40;60.60;;;;;;5051060;28;20374;-49
2021/09/13 01:55:38;;;;;;;1.83;1.45;;;24.40;60.40;;;;;;5050835;28;20375;-47
2021/09/13 01:58:04;;;;;;;1.75;1.35;;;24.40;60.40;;;;;;5052186;28;20035;-47
2021/09/13 02:00:30;;;;;;;2.78;1.50;;;24.30;60.50;;;;;;5051856;28;20057;-50
2021/09/13 02:02:55;;;;;;;2.20;1.50;;;24.30;60.70;;;;;;5051578;28;20421;-51
2021/09/13 02:05:21;;;;;;;2.80;2.17;;;24.20;60.70;;;;;;5052084;28;20370;-50
2021/09/13 02:07:47;;;;;;;2.20;1.75;;;24.30;60.70;;;;;;5051475;28;20033;-50
2021/09/13 02:10:12;;;;;;;2.13;1.45;;;24.30;60.50;;;;;;5052310;28;20025;-48
2021/09/13 02:12:38;;;;;;;1.83;1.70;;;24.30;60.70;;;;;;5051149;28;20090;-52
2021/09/13 02:15:04;;;;;;;2.38;1.50;;;24.30;60.50;;;;;;5052034;28;20017;-48
2021/09/13 02:17:30;;;;;;;2.38;1.40;;;24.20;60.40;;;;;;5051680;28;20032;-48
2021/09/13 02:19:55;;;;;;;1.85;1.40;;;24.20;60.60;;;;;;5063112;28;20368;-50
2021/09/13 02:22:21;;;;;;;1.83;1.38;;;24.20;60.60;;;;;;5071854;28;20028;-50
2021/09/13 02:24:47;;;;;;;3.05;1.27;;;24.20;60.50;;;;;;5070916;28;20386;-50
2021/09/13 02:27:12;;;;;;;1.55;1.38;;;24.20;60.50;;;;;;5071918;28;20512;-47
2021/09/13 02:29:38;;;;;;;1.77;1.40;;;24.20;60.50;;;;;;5070829;28;20470;-52
2021/09/13 02:32:04;;;;;;;1.73;1.50;;;24.20;60.40;;;;;;5070595;28;20032;-50
2021/09/13 02:34:30;;;;;;;1.58;1.45;;;24.20;60.40;;;;;;5070567;28;20481;-50
2021/09/13 02:36:55;;;;;;;1.60;1.35;;;24.20;60.40;;;;;;5071003;28;20021;-49
2021/09/13 02:39:21;;;;;;;3.97;1.70;;;24.20;60.40;;;;;;5071866;28;20035;-48
2021/09/13 02:41:47;;;;;;;3.70;1.50;;;24.20;60.40;;;;;;5070927;28;20036;-47
2021/09/13 02:44:12;;;;;;;1.63;1.33;;;24.20;60.10;;;;;;5071699;28;20025;-49
2021/09/13 02:46:38;;;;;;;2.05;1.65;;;24.20;60.30;;;;;;5071245;28;20060;-54
2021/09/13 02:49:04;;;;;;;3.58;1.80;;;24.20;60.10;;;;;;5070950;28;20046;-50
2021/09/13 02:51:29;;;;;;;2.03;1.42;;;24.20;60.00;;;;;;5071924;28;20036;-51
2021/09/13 02:53:55;;;;;;;2.00;1.38;;;24.20;60.10;;;;;;5070957;28;20106;-53
2021/09/13 02:56:20;;;;;;;4.38;1.70;;;24.20;60.10;;;;;;5071460;28;20021;-50
2021/09/13 02:58:46;;;;;;;1.80;1.67;;;24.20;60.10;;;;;;5070987;28;20058;-48
2021/09/13 03:01:12;;;;;;;2.05;1.60;;;24.20;60.10;;;;;;5071561;28;20056;-48
2021/09/13 03:03:38;;;;;;;2.33;1.40;;;24.20;60.10;;;;;;5071248;28;20481;-52
2021/09/13 03:06:04;;;;;;;1.80;1.45;;;24.20;60.00;;;;;;5071729;28;20036;-51
2021/09/13 03:08:29;;;;;;;1.55;1.30;;;24.20;60.10;;;;;;5071720;28;20466;-52
2021/09/13 03:10:55;;;;;;;2.33;1.58;;;24.20;60.00;;;;;;5059532;28;20017;-53
2021/09/13 03:13:20;;;;;;;3.17;1.90;;;24.20;60.00;;;;;;5051323;28;20489;-49
2021/09/13 03:15:46;;;;;;;2.58;1.63;;;24.20;59.80;;;;;;5050403;28;20474;-48
2021/09/13 03:18:12;;;;;;;2.65;1.42;;;24.20;59.70;;;;;;5051212;28;20036;-51
2021/09/13 03:20:37;;;;;;;2.17;1.60;;;24.20;59.80;;;;;;5068490;28;20040;-55
2021/09/13 03:23:03;;;;;;;1.60;1.30;;;24.20;59.70;;;;;;5070901;28;20032;-48
2021/09/13 03:25:29;;;;;;;1.40;1.30;;;24.20;59.70;;;;;;5070236;28;20031;-50
2021/09/13 03:27:58;;;;;;;2.10;1.63;;;24.20;59.80;;;;;;5070116;28;20044;-47
2021/09/13 03:30:25;;;;;;;2.58;1.50;;;24.20;59.90;;;;;;5071359;28;20037;-51
2021/09/13 03:32:50;;;;;;;3.47;1.30;;;24.20;59.90;;;;;;5070519;28;20374;-52
2021/09/13 03:35:16;;;;;;;2.75;1.70;;;24.20;59.80;;;;;;5071243;28;20134;-52
2021/09/13 03:37:41;;;;;;;5.63;1.70;;;24.20;59.70;;;;;;5070392;28;20062;-48
2021/09/13 03:40:08;;;;;;;1.95;1.35;;;24.20;59.50;;;;;;5070980;28;20032;-48
2021/09/13 03:42:34;;;;;;;2.00;1.80;;;24.20;59.50;;;;;;5072549;28;20035;-49
2021/09/13 03:44:59;;;;;;;5.65;1.67;;;24.20;59.60;;;;;;5074026;28;20024;-48
2021/09/13 03:47:25;;;;;;;1.60;1.50;;;24.20;59.80;;;;;;5075072;28;20028;-48
2021/09/13 03:49:50;;;;;;;1.83;1.50;;;24.10;60.00;;;;;;5073361;28;20083;-46
2021/09/13 03:52:16;;;;;;;1.88;1.42;;;24.10;59.90;;;;;;5074595;28;20434;-46
2021/09/13 03:54:42;;;;;;;1.63;1.25;;;24.10;59.80;;;;;;5073320;28;20102;-50
2021/09/13 03:57:07;;;;;;;1.65;1.45;;;24.10;59.70;;;;;;5074730;28;20024;-47
2021/09/13 03:59:33;;;;;;;3.47;1.80;;;24.20;59.60;;;;;;5073956;28;20036;-47
2021/09/13 04:01:59;;;;;;;2.20;1.60;;;24.20;59.50;;;;;;5073710;28;20111;-50
2021/09/13 04:04:29;;;;;;;2.20;1.80;;;24.20;59.60;;;;;;5074523;28;20466;-48
2021/09/13 04:07:12;;;;;;;2.90;1.60;;;24.10;59.70;;;;;;5073652;28;20111;-46
2021/09/13 04:12:23;;;;;;;1.65;1.38;;;24.20;59.50;;;;;;5074094;28;20078;-47
2021/09/13 04:14:48;;;;;;;2.22;1.38;;;24.20;59.50;;;;;;5073620;28;20076;-47
2021/09/13 04:17:14;;;;;;;2.53;1.70;;;24.20;59.50;;;;;;5073806;28;20462;-46
2021/09/13 04:19:40;;;;;;;3.10;1.33;;;24.20;59.50;;;;;;5072993;28;20036;-54
2021/09/13 04:22:05;;;;;;;1.88;1.50;;;24.20;59.40;;;;;;5057578;28;20387;-46
2021/09/13 04:24:31;;;;;;;2.05;1.50;;;24.20;59.50;;;;;;5054192;28;20481;-46
2021/09/13 04:26:57;;;;;;;1.73;1.40;;;24.20;59.40;;;;;;5053344;28;20155;-48
2021/09/13 04:29:22;;;;;;;2.42;1.33;;;24.20;59.40;;;;;;5054032;28;20159;-48
2021/09/13 04:31:48;;;;;;;1.50;1.40;;;24.20;59.40;;;;;;5053144;28;20039;-51
2021/09/13 04:34:14;;;;;;;1.70;1.52;;;24.20;59.40;;;;;;5053964;28;20027;-47
2021/09/13 04:36:39;;;;;;;2.22;1.42;;;24.20;59.40;;;;;;5053285;28;20025;-55
2021/09/13 04:39:05;;;;;;;2.60;1.85;;;24.10;59.40;;;;;;5053716;28;20036;-51
2021/09/13 04:41:31;;;;;;;1.77;1.58;;;24.10;59.60;;;;;;5054013;28;20525;-49
2021/09/13 04:43:56;;;;;;;1.80;1.40;;;24.10;59.70;;;;;;5052853;28;20052;-50
2021/09/13 04:46:22;;;;;;;1.50;1.40;;;24.10;59.50;;;;;;5051906;28;20025;-47
2021/09/13 04:48:48;;;;;;;4.07;1.42;;;24.10;59.60;;;;;;5055327;28;20044;-45
2021/09/13 04:51:13;;;;;;;1.88;1.60;;;24.10;59.50;;;;;;5073513;28;20028;-46
2021/09/13 04:53:39;;;;;;;2.83;1.42;;;24.00;59.50;;;;;;5072186;28;20025;-54
2021/09/13 04:56:04;;;;;;;2.10;1.50;;;24.00;59.40;;;;;;5072786;28;20070;-48
2021/09/13 04:58:30;;;;;;;2.00;1.80;;;23.90;59.40;;;;;;5073097;28;20485;-46
2021/09/13 05:00:56;;;;;;;1.98;1.50;;;24.00;59.40;;;;;;5072425;28;20053;-47
2021/09/13 05:03:21;;;;;;;1.70;1.60;;;24.00;59.30;;;;;;5073316;28;20029;-51
2021/09/13 05:05:47;;;;;;;2.78;1.60;;;24.00;59.30;;;;;;5064851;28;20025;-51
2021/09/13 05:08:13;;;;;;;1.77;1.48;;;24.00;59.20;;;;;;5052003;28;20065;-48
2021/09/13 05:10:38;;;;;;;2.42;1.65;;;24.00;59.10;;;;;;5051680;28;20535;-56
2021/09/13 05:13:05;;;;;;;2.85;1.48;;;24.00;59.10;;;;;;5051312;28;20033;-49
2021/09/13 05:15:31;;;;;;;3.20;1.33;;;24.00;59.20;;;;;;5052047;28;20033;-52
2021/09/13 05:17:56;;;;;;;4.03;1.40;;;24.00;59.40;;;;;;5049327;28;20040;-49
2021/09/13 05:20:22;;;;;;;1.83;1.60;;;24.00;59.20;;;;;;5053942;28;20032;-49
2021/09/13 05:22:47;;;;;;;1.70;1.52;;;24.00;59.30;;;;;;5051497;28;20363;-48
2021/09/13 05:25:13;;;;;;;3.97;2.00;;;24.00;59.30;;;;;;5062593;28;20021;-48
2021/09/13 05:27:39;;;;;;;1.98;1.50;;;24.00;59.30;;;;;;5072692;28;20462;-56
2021/09/13 05:30:05;;;;;;;1.65;1.55;;;24.00;59.30;;;;;;5072392;28;20043;-53
2021/09/13 05:32:31;;;;;;;3.15;1.60;;;24.00;59.20;;;;;;5073305;28;20051;-47
2021/09/13 05:34:56;;;;;;;2.03;1.48;;;24.00;59.20;;;;;;5071733;28;20032;-48
2021/09/13 05:37:22;;;;;;;2.22;1.60;;;24.00;59.20;;;;;;5072572;28;20388;-47
2021/09/13 05:39:48;;;;;;;4.22;1.52;;;24.00;59.20;;;;;;5071560;28;20458;-46
2021/09/13 05:42:14;;;;;;;1.65;1.35;;;24.00;59.20;;;;;;5072858;28;20029;-49
2021/09/13 05:44:41;;;;;;;1.98;1.60;;;24.00;59.10;;;;;;5072115;28;20382;-56
2021/09/13 05:47:07;;;;;;;1.65;1.38;;;24.00;59.00;;;;;;5072094;28;20027;-46
2021/09/13 05:49:32;;;;;;;1.77;1.60;;;24.10;59.10;;;;;;5071952;28;20029;-49
2021/09/13 05:51:58;;;;;;;1.85;1.48;;;24.00;59.20;;;;;;5071562;28;20575;-49
2021/09/13 05:54:26;;;;;;;2.10;1.60;;;24.00;59.20;;;;;;5072058;28;20347;-47
2021/09/13 05:56:56;;;;;;;4.03;1.80;;;24.10;59.20;;;;;;5071701;28;20036;-48
2021/09/13 05:59:23;;;;;;;7.30;2.30;;;24.10;59.30;;;;;;5072349;28;20047;-47
2021/09/13 06:01:50;;;;;;;7.38;1.80;;;24.10;59.40;;;;;;5071527;28;20102;-49
2021/09/13 06:04:16;;;;;;;3.78;1.75;;;24.00;59.10;;;;;;5072189;28;20029;-49
2021/09/13 06:06:41;;;;;;;3.60;1.70;;;24.10;59.10;;;;;;5071673;28;20025;-55
2021/09/13 06:09:08;;;;;;;3.28;1.65;;;24.10;59.00;;;;;;5071713;28;20081;-51
2021/09/13 06:11:34;;;;;;;3.10;1.70;;;24.10;58.90;;;;;;5055093;28;20028;-49
2021/09/13 06:14:00;;;;;;;2.15;1.83;;;24.20;59.00;;;;;;5051330;28;20033;-49
2021/09/13 06:16:26;;;;;;;5.22;1.60;;;24.10;58.90;;;;;;5051819;28;20390;-46
2021/09/13 06:18:51;;;;;;;3.58;1.73;;;24.10;58.80;;;;;;5048057;28;20035;-52
2021/09/13 06:21:18;;;;;;;4.05;1.77;;;24.20;59.30;;;;;;5051383;28;20064;-46
2021/09/13 06:23:45;;;;;;;3.30;1.60;;;24.20;58.70;;;;;;5052960;28;20028;-47
2021/09/13 06:26:11;;;;;;;5.70;1.90;;;24.20;59.50;;;;;;5058962;28;20027;-47
2021/09/13 06:28:37;;;;;;;3.45;1.67;;;24.30;59.20;;;;;;5072073;28;20036;-46
2021/09/13 06:31:03;;;;;;;3.20;1.63;;;24.30;58.90;;;;;;5069790;28;20028;-50
2021/09/13 06:33:30;;;;;;;4.57;1.80;;;24.30;58.70;;;;;;5071733;28;20029;-48
2021/09/13 06:35:56;;;;;;;3.85;1.80;;;24.30;58.70;;;;;;5071466;28;20429;-48
2021/09/13 06:38:21;;;;;;;5.40;1.77;;;24.40;58.70;;;;;;5071875;28;20032;-51
2021/09/13 06:40:47;;;;;;;5.07;1.88;;;24.40;58.70;;;;;;5071362;28;20473;-46
2021/09/13 06:43:16;;;;;;;3.65;1.90;;;24.40;58.80;;;;;;5071595;28;20556;-47
2021/09/13 06:45:44;;;;;;;3.67;1.88;;;24.40;58.60;;;;;;5071375;28;20032;-49
2021/09/13 06:48:12;;;;;;;3.80;1.80;;;24.40;59.00;;;;;;5071732;28;20461;-47
2021/09/13 06:50:39;;;;;;;3.78;1.60;;;24.40;58.80;;;;;;5069815;28;20028;-52
2021/09/13 06:53:06;;;;;;;2.75;1.77;;;24.40;59.20;;;;;;5070526;28;20029;-50
2021/09/13 06:55:32;;;;;;;2.90;1.50;;;24.50;58.80;;;;;;5071443;28;20086;-52
2021/09/13 06:57:58;;;;;;;3.55;2.10;;;24.40;58.80;;;;;;5070649;28;20033;-52
2021/09/13 07:00:24;;;;;;;4.32;2.00;;;24.40;58.60;;;;;;5071331;28;20053;-52
2021/09/13 07:02:50;;;;;;;3.42;1.75;;;24.50;58.90;;;;;;5071044;28;20033;-50
2021/09/13 07:05:16;;;;;;;3.13;2.00;;;24.50;59.10;;;;;;5071840;28;20127;-49
2021/09/13 07:07:42;;;;;;;2.08;1.60;;;24.40;58.70;;;;;;5071956;28;20104;-51
2021/09/13 07:10:09;;;;;;;2.60;1.60;;;24.50;58.50;;;;;;5062838;28;20065;-46
2021/09/13 07:12:36;;;;;;;4.65;3.22;;;24.50;58.70;;;;;;5063178;28;20031;-47
2021/09/13 07:15:04;;;;;;;2.25;1.95;;;24.40;59.30;;;;;;5067985;28;20452;-49
2021/09/13 07:17:30;;;;;;;3.80;1.88;;;24.50;59.30;;;;;;5052811;28;20508;-47
2021/09/13 07:19:56;;;;;;;4.45;1.83;;;24.50;59.50;;;;;;5052871;28;20041;-48
2021/09/13 07:22:21;;;;;;;1.70;1.38;;;24.50;59.70;;;;;;5051196;28;20028;-49
2021/09/13 07:24:47;;;;;;;3.35;2.00;;;24.50;59.80;;;;;;5055092;28;20036;-54
2021/09/13 07:27:13;;;;;;;5.50;1.70;;;24.50;60.40;;;;;;5053024;28;20025;-53
2021/09/13 07:29:40;;;;;;;2.38;1.58;;;24.60;60.40;;;;;;5051871;28;20029;-48
2021/09/13 07:32:06;;;;;;;4.03;1.75;;;24.60;60.10;;;;;;5052892;28;20090;-48
2021/09/13 07:34:33;;;;;;;4.90;2.00;;;24.50;60.00;;;;;;5053434;28;20025;-49
2021/09/13 07:36:59;;;;;;;3.22;2.15;;;24.50;60.30;;;;;;5054013;28;20031;-51
2021/09/13 07:39:26;;;;;;;2.72;1.67;;;24.60;60.50;;;;;;5052376;28;20186;-49
2021/09/13 07:41:52;;;;;;;3.92;2.05;;;24.60;60.60;;;;;;5068331;28;20103;-52
2021/09/13 07:44:18;;;;;;;3.95;1.80;;;24.60;60.40;;;;;;5052763;28;20037;-50
2021/09/13 07:46:44;;;;;;;6.15;2.53;;;24.60;60.40;;;;;;5054242;28;20083;-54
2021/09/13 07:49:10;;;;;;;3.88;1.58;;;24.60;60.50;;;;;;5053818;28;20029;-49
2021/09/13 07:51:36;;;;;;;3.35;1.88;;;24.60;61.00;;;;;;5054968;28;20056;-50
2021/09/13 07:54:02;;;;;;;4.35;2.08;;;24.60;60.80;;;;;;5053474;28;20529;-45
2021/09/13 07:56:28;;;;;;;3.88;2.15;;;24.60;60.10;;;;;;5054461;28;20028;-47
2021/09/13 07:58:54;;;;;;;5.70;1.88;;;24.60;60.80;;;;;;5053041;28;20124;-46
2021/09/13 08:01:20;;;;;;;3.28;1.77;;;24.50;60.60;;;;;;5054024;28;20048;-48
2021/09/13 08:03:46;;;;;;;2.50;2.03;;;24.60;60.20;;;;;;5053856;28;20025;-53
2021/09/13 08:06:12;;;;;;;4.97;1.90;;;24.50;59.50;;;;;;5054111;28;20040;-46
2021/09/13 08:08:37;;;;;;;4.50;1.85;;;24.60;60.20;;;;;;5054116;28;20041;-50
2021/09/13 08:11:04;;;;;;;4.07;1.95;;;24.60;60.00;;;;;;5060059;28;20811;-47
2021/09/13 08:13:30;;;;;;;3.83;1.80;;;24.60;60.00;;;;;;5074103;28;20036;-48
2021/09/13 08:15:56;;;;;;;8.80;2.53;;;24.60;60.30;;;;;;5072819;28;20034;-50
2021/09/13 08:18:21;;;;;;;5.10;2.13;;;24.60;60.20;;;;;;5053083;28;20033;-48
2021/09/13 08:20:47;;;;;;;5.90;2.10;;;24.60;60.20;;;;;;5037722;28;20075;-56
2021/09/13 08:23:13;;;;;;;6.50;2.10;;;24.60;60.10;;;;;;5054300;28;20025;-48
2021/09/13 08:25:38;;;;;;;4.22;1.80;;;24.60;60.50;;;;;;5054142;28;20065;-51
2021/09/13 08:28:04;;;;;;;2.75;1.40;;;24.60;60.80;;;;;;5049808;28;20029;-53
2021/09/13 08:30:30;;;;;;;3.20;1.80;;;24.60;60.20;;;;;;5052703;28;20033;-48
2021/09/13 08:32:56;;;;;;;3.80;1.95;;;24.60;60.30;;;;;;5052879;28;20025;-46
2021/09/13 08:35:21;;;;;;;10.90;2.22;;;24.60;60.30;;;;;;5053680;28;20425;-47
2021/09/13 08:37:47;;;;;;;4.07;1.92;;;24.60;60.10;;;;;;5053160;28;20062;-54
2021/09/13 08:40:13;;;;;;;9.35;1.92;;;24.60;60.40;;;;;;5053224;28;20067;-50
2021/09/13 08:42:48;;;;;;;4.03;2.13;;;24.60;60.70;;;;;;5033621;28;20040;-48
2021/09/13 08:45:25;;;;;;;5.95;1.60;;;24.60;60.50;;;;;;5033285;28;20036;-48
2021/09/13 08:48:13;;;;;;;6.72;2.95;;;24.50;60.70;;;;;;5016566;28;20033;-48
2021/09/13 08:53:33;;;;;;;4.38;2.15;;;24.20;57.30;;;;;;5051753;28;20037;-51
2021/09/13 08:56:02;;;;;;;4.35;2.30;;;24.00;55.80;;;;;;5052144;28;20391;-51
2021/09/13 08:58:32;;;;;;;4.53;2.53;;;23.90;56.90;;;;;;5053042;28;20041;-50
2021/09/13 09:00:58;;;;;;;4.07;2.22;;;23.90;56.60;;;;;;5052303;28;20049;-48
2021/09/13 09:03:24;;;;;;;10.85;2.47;;;23.80;56.50;;;;;;5053196;28;20400;-50
2021/09/13 09:05:51;;;;;;;3.78;2.08;;;23.90;57.60;;;;;;5052506;28;20068;-53
2021/09/13 09:08:31;;;;;;;5.07;2.33;;;24.00;57.70;;;;;;5053237;28;20116;-48
2021/09/13 09:11:01;;;;;;;5.43;2.72;;;24.20;57.20;;;;;;5057834;28;20028;-46
2021/09/13 09:13:37;;;;;;;3.78;1.75;;;24.30;56.80;;;;;;5073152;28;20028;-46
2021/09/13 09:16:03;;;;;;;4.63;1.90;;;24.40;57.00;;;;;;5046439;28;20485;-47
2021/09/13 09:18:44;;;;;;;3.85;2.17;;;24.40;57.20;;;;;;5052840;28;20084;-46
2021/09/13 09:21:13;;;;;;;4.85;2.05;;;24.50;57.30;;;;;;5052135;28;20461;-47
2021/09/13 09:24:08;;;;;;;6.05;2.42;;;24.50;57.40;;;;;;5053496;28;20021;-47
2021/09/13 09:26:33;;;;;;;6.55;1.80;;;24.50;57.70;;;;;;5048143;28;20479;-50
2021/09/13 09:29:00;;;;;;;5.43;2.03;;;24.50;57.80;;;;;;5052457;28;20048;-47
2021/09/13 09:31:39;;;;;;;3.60;2.10;;;24.50;57.80;;;;;;5052853;28;20033;-52
2021/09/13 09:34:19;;;;;;;3.88;1.63;;;24.50;57.80;;;;;;5052469;28;20095;-50
2021/09/13 09:37:07;;;;;;;7.65;2.35;;;24.50;57.90;;;;;;5052825;28;20033;-47
2021/09/13 09:39:38;;;;;;;2.67;1.75;;;24.50;57.90;;;;;;5053007;28;20068;-49
2021/09/13 09:42:05;;;;;;;3.70;2.20;;;24.50;57.80;;;;;;5066929;28;20050;-50
2021/09/13 09:44:35;;;;;;;3.05;1.95;;;24.50;57.90;;;;;;5072545;28;20474;-46
2021/09/13 09:47:10;;;;;;;3.22;2.10;;;24.50;57.90;;;;;;5071794;28;20074;-50
2021/09/13 09:49:40;;;;;;;3.38;1.80;;;24.50;57.70;;;;;;5072643;28;20055;-46
2021/09/13 09:52:07;;;;;;;4.63;1.73;;;24.50;57.90;;;;;;5071557;28;20121;-47
2021/09/13 09:54:32;;;;;;;3.60;2.25;;;24.50;57.80;;;;;;5072272;28;20035;-48
2021/09/13 09:57:00;;;;;;;3.75;2.00;;;24.50;57.80;;;;;;5071441;28;20028;-49
2021/09/13 09:59:41;;;;;;;3.17;1.90;;;24.50;57.80;;;;;;5071922;28;20528;-47
2021/09/13 10:02:17;;;;;;;3.53;2.20;;;24.50;57.80;;;;;;5071926;28;20057;-46
2021/09/13 10:04:57;;;;;;;4.38;1.90;;;24.50;57.90;;;;;;5072880;28;20461;-52
2021/09/13 10:07:23;;;;;;;4.50;1.95;;;24.50;58.30;;;;;;5060310;28;20095;-47
2021/09/13 10:09:49;;;;;;;2.58;1.70;;;24.50;58.40;;;;;;5049639;28;20719;-50
2021/09/13 10:12:15;;;;;;;5.93;2.05;;;24.50;58.10;;;;;;5069547;28;20021;-47
2021/09/13 10:14:41;;;;;;;4.18;1.92;;;24.50;58.10;;;;;;5072440;28;20028;-46
2021/09/13 10:17:07;;;;;;;3.28;1.80;;;24.50;58.10;;;;;;5070683;28;20525;-50
2021/09/13 10:19:34;;;;;;;10.00;2.15;;;24.50;58.50;;;;;;5072086;28;20037;-52
2021/09/13 10:22:00;;;;;;;7.38;2.13;;;24.50;58.50;;;;;;5071553;28;20035;-48
2021/09/13 10:24:32;;;;;;;2.95;1.83;;;24.60;58.30;;;;;;5068608;28;20052;-46
2021/09/13 10:27:11;;;;;;;4.68;1.92;;;24.60;58.50;;;;;;5051153;28;20060;-51
2021/09/13 10:29:37;;;;;;;2.88;2.20;;;24.60;58.60;;;;;;5051448;28;20086;-50
2021/09/13 10:32:09;;;;;;;5.13;2.28;;;24.60;58.70;;;;;;5049750;28;20116;-49
2021/09/13 10:34:40;;;;;;;;;;;24.60;58.60;;;;;;5052069;28;20072;-53
2021/09/13 10:37:21;;;;;;;3.20;1.77;;;24.60;58.70;;;;;;5050737;28;19911;-52
2021/09/13 10:40:05;;;;;;;4.47;2.05;;;24.60;58.90;;;;;;5051433;28;20132;-56
2021/09/13 10:42:37;;;;;;;3.60;1.95;;;24.60;58.80;;;;;;5069080;28;20115;-51
2021/09/13 10:45:24;;;;;;;3.53;1.80;;;24.70;58.90;;;;;;5070206;28;20485;-45
2021/09/13 10:47:58;;;;;;;3.45;2.53;;;24.60;58.90;;;;;;5071068;28;20038;-56
2021/09/13 10:50:35;;;;;;;7.03;2.47;;;24.70;58.90;;;;;;5071733;28;20103;-48
2021/09/13 10:53:24;;;;;;;3.28;1.70;;;24.70;59.00;;;;;;5073063;28;20024;-49
2021/09/13 10:56:02;;;;;;;2.97;1.77;;;24.60;58.90;;;;;;5070858;28;20044;-56
2021/09/13 10:58:30;;;;;;;3.22;2.22;;;24.70;59.00;;;;;;5075144;28;20036;-47
2021/09/13 11:00:58;;;;;;;3.65;1.85;;;24.70;59.10;;;;;;5074791;28;20144;-49
2021/09/13 11:03:31;;;;;;;5.00;1.90;;;24.70;59.10;;;;;;5075699;28;20024;-47
2021/09/13 11:06:06;;;;;;;4.43;1.92;;;24.70;59.20;;;;;;5074589;28;20025;-49
2021/09/13 11:08:53;;;;;;;2.65;2.15;;;24.70;59.30;;;;;;5057728;28;20039;-46
2021/09/13 11:11:18;;;;;;;3.67;2.08;;;24.70;59.30;;;;;;5064018;28;20033;-49
2021/09/13 11:14:05;;;;;;;3.13;1.90;;;24.70;59.30;;;;;;5075078;28;20519;-49
2021/09/13 11:16:36;;;;;;;3.55;2.03;;;24.70;59.20;;;;;;5074396;28;20045;-49
2021/09/13 11:19:08;;;;;;;4.72;2.10;;;24.70;59.20;;;;;;5062954;28;20060;-46
2021/09/13 11:21:36;;;;;;;4.35;2.20;;;24.70;59.20;;;;;;5055302;28;20036;-48
2021/09/13 11:24:07;;;;;;;4.00;1.95;;;24.70;59.30;;;;;;5054359;28;20029;-49
2021/09/13 11:26:37;;;;;;;2.78;2.22;;;24.70;59.50;;;;;;5055262;28;20055;-50
2021/09/13 11:29:18;;;;;;;3.88;1.98;;;24.70;59.50;;;;;;5053402;28;20025;-49
2021/09/13 11:31:47;;;;;;;2.38;1.92;;;24.70;59.40;;;;;;5055255;28;20037;-51
2021/09/13 11:34:12;;;;;;;4.55;1.85;;;24.70;59.50;;;;;;5054182;28;20871;-49
2021/09/13 11:36:38;;;;;;;3.33;2.00;;;24.70;59.30;;;;;;5054991;28;20028;-49
2021/09/13 11:39:06;;;;;;;3.70;1.70;;;24.70;59.40;;;;;;5053626;28;20038;-49
2021/09/13 11:41:33;;;;;;;6.38;2.13;;;24.80;59.40;;;;;;5065497;28;20032;-50
2021/09/13 11:44:03;;;;;;;2.67;2.40;;;24.80;59.50;;;;;;5074197;28;20036;-51
2021/09/13 11:46:30;;;;;;;5.22;2.03;;;24.70;59.50;;;;;;5075038;28;20063;-48
2021/09/13 11:49:14;;;;;;;4.60;2.70;;;24.80;60.00;;;;;;5067993;28;20274;-46
2021/09/13 11:52:05;;;;;;;2.38;1.90;;;24.70;59.40;;;;;;5055003;28;20032;-52
2021/09/13 11:54:32;;;;;;;4.72;2.17;;;24.80;59.30;;;;;;5052858;28;20082;-50
2021/09/13 11:56:58;;;;;;;3.78;2.05;;;24.80;59.40;;;;;;5053867;28;20060;-48
2021/09/13 11:59:25;;;;;;;4.78;2.05;;;24.80;59.60;;;;;;5050922;28;20072;-51
2021/09/13 12:02:01;;;;;;;3.30;1.85;;;24.80;59.50;;;;;;5033692;28;20042;-57
2021/09/13 12:04:28;;;;;;;4.10;2.08;;;24.80;59.50;;;;;;5034107;28;20065;-47
2021/09/13 12:07:08;;;;;;;3.80;2.00;;;24.80;59.40;;;;;;5033127;28;20040;-50
2021/09/13 12:09:36;;;;;;;2.78;2.10;;;24.80;59.30;;;;;;5034769;28;20486;-48
2021/09/13 12:12:03;;;;;;;3.85;2.00;;;24.80;59.10;;;;;;5067994;28;20025;-49
2021/09/13 12:14:29;;;;;;;4.10;1.90;;;24.80;59.00;;;;;;5074162;28;20032;-47
2021/09/13 12:17:10;;;;;;;4.60;2.53;;;24.80;59.10;;;;;;5073296;28;20107;-46
2021/09/13 12:19:38;;;;;;;2.45;1.80;;;24.80;59.10;;;;;;5074461;28;20036;-46
2021/09/13 12:22:06;;;;;;;4.05;2.03;;;24.80;59.10;;;;;;5056181;28;20029;-47
2021/09/13 12:24:33;;;;;;;2.70;2.00;;;24.80;59.10;;;;;;5054235;28;20021;-47
2021/09/13 12:27:22;;;;;;;2.35;2.13;;;24.80;59.20;;;;;;5053808;28;20112;-46
2021/09/13 12:29:52;;;;;;;2.38;1.88;;;24.80;58.90;;;;;;5053493;28;20044;-48
2021/09/13 12:32:25;;;;;;;4.47;1.98;;;24.80;58.50;;;;;;5053952;28;20561;-48
2021/09/13 12:34:59;;;;;;;2.28;1.98;;;24.80;58.80;;;;;;5053685;28;20033;-47
2021/09/13 12:37:27;;;;;;;3.75;2.30;;;24.80;58.80;;;;;;5052570;28;20025;-47
2021/09/13 12:40:00;;;;;;;6.72;2.33;;;24.80;59.00;;;;;;5053378;28;20037;-47
2021/09/13 12:42:26;;;;;;;3.60;2.22;;;24.80;59.00;;;;;;5059084;28;20033;-50
2021/09/13 12:45:03;;;;;;;2.25;1.80;;;24.80;59.00;;;;;;5057212;28;20033;-59
2021/09/13 12:47:29;;;;;;;3.40;1.83;;;24.80;59.00;;;;;;5033641;28;20379;-45
2021/09/13 12:49:55;;;;;;;4.38;2.05;;;24.80;59.00;;;;;;5051212;28;20056;-52
2021/09/13 12:52:21;;;;;;;5.20;2.28;;;24.80;58.90;;;;;;5065075;28;20405;-48
2021/09/13 12:54:49;;;;;;;2.92;2.10;;;24.80;59.00;;;;;;5072596;28;20029;-47
2021/09/13 12:57:33;;;;;;;2.83;2.00;;;24.80;59.00;;;;;;5056214;28;20060;-47